Time;durP1;ratioP1;P1;durP2;ratioP2;P2;SDS_P1;SDS_P2;PMS_P1;PMS_P2;Temp;Humidity;BMP_temperature;BMP_pressure;BME280_temperature;BME280_humidity;BME280_pressure;Samples;Min_cycle;Max_cycle;Signal;HPM_P1;HPM_P2
2023/04/03 00:02:04;;;;;;;;;;;;;;;;;;4926391;29;19991;-81
2023/04/03 00:04:30;;;;;;;;;;;;;;;;;;4912660;29;20006;-81
2023/04/03 00:06:55;;;;;;;;;;;;;;;;;;4913146;29;19916;-81
2023/04/03 00:09:20;;;;;;;;;;;;;;;;;;4913815;29;19916;-81
2023/04/03 00:11:46;;;;;;;;;;;;;;;;;;4911043;29;20395;-81
2023/04/03 00:14:11;;;;;;;;;;;;;;;;;;4912449;29;19926;-82
2023/04/03 00:16:37;;;;;;;;;;;;;;;;;;4913045;29;20392;-82
2023/04/03 00:19:02;;;;;;;;;;;;;;;;;;4914338;29;19915;-81
2023/04/03 00:21:28;;;;;;;;;;;;;;;;;;4913134;29;20006;-81
2023/04/03 00:23:53;;;;;;;;;;;;;;;;;;4927292;29;19926;-81
2023/04/03 00:26:18;;;;;;;;;;;;;;;;;;4928117;29;19923;-81
2023/04/03 00:28:44;;;;;;;;;;;;;;;;;;4915289;29;19951;-81
2023/04/03 00:31:10;;;;;;;;;;;;;;;;;;4925272;29;20287;-81
2023/04/03 00:33:35;;;;;;;;;;;;;;;;;;4922214;29;19943;-80
2023/04/03 00:36:00;;;;;;;;;;;;;;;;;;4920233;29;19975;-81
2023/04/03 00:38:27;;;;;;;;;;;;;;;;;;4905479;29;19947;-81
2023/04/03 00:40:52;;;;;;;;;;;;;;;;;;4920777;29;19919;-81
2023/04/03 00:43:17;;;;;;;;;;;;;;;;;;4921592;29;20303;-81
2023/04/03 00:45:43;;;;;;;;;;;;;;;;;;4920950;29;19915;-81
2023/04/03 00:48:08;;;;;;;;;;;;;;;;;;4906229;29;20015;-80
2023/04/03 00:50:34;;;;;;;;;;;;;;;;;;4904074;29;19911;-81
2023/04/03 00:52:59;;;;;;;;;;;;;;;;;;4891854;29;19940;-81
2023/04/03 00:55:26;;;;;;;;;;;;;;;;;;4907846;29;19967;-81
2023/04/03 00:57:51;;;;;;;;;;;;;;;;;;4907109;29;19915;-81
2023/04/03 01:00:16;;;;;;;;;;;;;;;;;;4920081;29;19922;-81
2023/04/03 01:02:42;;;;;;;;;;;;;;;;;;4906526;29;19923;-81
2023/04/03 01:05:09;;;;;;;;;;;;;;;;;;4891982;29;19915;-82
2023/04/03 01:07:36;;;;;;;;;;;;;;;;;;4908700;29;19915;-81
2023/04/03 01:10:02;;;;;;;;;;;;;;;;;;4893643;29;19927;-82
2023/04/03 01:12:27;;;;;;;;;;;;;;;;;;4909534;29;19915;-81
2023/04/03 01:14:53;;;;;;;;;;;;;;;;;;4906041;29;19922;-81
2023/04/03 01:17:18;;;;;;;;;;;;;;;;;;4908711;29;19989;-82
2023/04/03 01:19:43;;;;;;;;;;;;;;;;;;4923099;29;19915;-81
2023/04/03 01:22:10;;;;;;;;;;;;;;;;;;4906665;29;19916;-81
2023/04/03 01:24:36;;;;;;;;;;;;;;;;;;4907025;29;19962;-81
2023/04/03 01:27:03;;;;;;;;;;;;;;;;;;4923392;29;19958;-81
2023/04/03 01:29:28;;;;;;;;;;;;;;;;;;4894948;29;19920;-81
2023/04/03 01:31:54;;;;;;;;;;;;;;;;;;4917345;29;19925;-81
2023/04/03 01:34:19;;;;;;;;;;;;;;;;;;4921187;29;19911;-81
2023/04/03 01:36:45;;;;;;;;;;;;;;;;;;4920739;29;19915;-81
2023/04/03 01:39:10;;;;;;;;;;;;;;;;;;4936699;29;19916;-80
2023/04/03 01:41:36;;;;;;;;;;;;;;;;;;4937615;28;19915;-81
2023/04/03 01:44:11;;;;;;;;;;;;;;;;;;4921807;29;19903;-81
2023/04/03 01:46:37;;;;;;;;;;;;;;;;;;4919173;29;19919;-83
2023/04/03 01:49:03;;;;;;;;;;;;;;;;;;4911326;29;19915;-81
2023/04/03 01:51:28;;;;;;;;;;;;;;;;;;4921340;29;19915;-82
2023/04/03 01:53:53;;;;;;;;;;;;;;;;;;4906226;29;20009;-82
2023/04/03 01:56:20;;;;;;;;;;;;;;;;;;4906779;29;19927;-82
2023/04/03 01:58:45;;;;;;;;;;;;;;;;;;4921457;29;19923;-81
2023/04/03 02:01:10;;;;;;;;;;;;;;;;;;4921089;29;20290;-81
2023/04/03 02:03:36;;;;;;;;;;;;;;;;;;4906751;29;19916;-81
2023/04/03 02:06:01;;;;;;;;;;;;;;;;;;4905096;29;19915;-82
2023/04/03 02:08:27;;;;;;;;;;;;;;;;;;4919026;29;19916;-81
2023/04/03 02:10:52;;;;;;;;;;;;;;;;;;4918111;29;19944;-81
2023/04/03 02:13:18;;;;;;;;;;;;;;;;;;4906797;29;20381;-81
2023/04/03 02:15:45;;;;;;;;;;;;;;;;;;4907933;29;19919;-81
2023/04/03 02:18:10;;;;;;;;;;;;;;;;;;4923210;29;19916;-81
2023/04/03 02:20:35;;;;;;;;;;;;;;;;;;4909283;29;20292;-82
2023/04/03 02:23:01;;;;;;;;;;;;;;;;;;4924051;29;19958;-80
2023/04/03 02:25:26;;;;;;;;;;;;;;;;;;4924310;29;19919;-81
2023/04/03 02:27:52;;;;;;;;;;;;;;;;;;4908929;29;19919;-81
2023/04/03 02:30:17;;;;;;;;;;;;;;;;;;4922729;29;19979;-81
2023/04/03 02:32:43;;;;;;;;;;;;;;;;;;4922427;29;19916;-81
2023/04/03 02:35:08;;;;;;;;;;;;;;;;;;4921948;29;20015;-81
2023/04/03 02:37:34;;;;;;;;;;;;;;;;;;4921725;29;19969;-81
2023/04/03 02:39:59;;;;;;;;;;;;;;;;;;4905483;29;19944;-81
2023/04/03 02:42:26;;;;;;;;;;;;;;;;;;4888592;29;19940;-81
2023/04/03 02:44:51;;;;;;;;;;;;;;;;;;4904954;29;19919;-81
2023/04/03 02:47:17;;;;;;;;;;;;;;;;;;4921632;29;19916;-81
2023/04/03 02:49:45;;;;;;;;;;;;;;;;;;4906332;29;19953;-81
2023/04/03 02:52:11;;;;;;;;;;;;;;;;;;4905825;29;19950;-81
2023/04/03 02:54:37;;;;;;;;;;;;;;;;;;4903600;29;19919;-81
2023/04/03 02:57:05;;;;;;;;;;;;;;;;;;4901839;29;19916;-81
2023/04/03 02:59:30;;;;;;;;;;;;;;;;;;4917038;29;19923;-81
2023/04/03 03:01:56;;;;;;;;;;;;;;;;;;4901889;29;19933;-82
2023/04/03 03:04:21;;;;;;;;;;;;;;;;;;4917429;29;19939;-82
2023/04/03 03:06:47;;;;;;;;;;;;;;;;;;4920573;29;19915;-81
2023/04/03 03:09:12;;;;;;;;;;;;;;;;;;4919501;29;20314;-81
2023/04/03 03:11:38;;;;;;;;;;;;;;;;;;4907951;29;19915;-81
2023/04/03 03:14:04;;;;;;;;;;;;;;;;;;4909416;29;20329;-82
2023/04/03 03:16:29;;;;;;;;;;;;;;;;;;4921496;29;19986;-81
2023/04/03 03:18:55;;;;;;;;;;;;;;;;;;4906485;29;19963;-81
2023/04/03 03:21:21;;;;;;;;;;;;;;;;;;4906421;29;19923;-81
2023/04/03 03:23:46;;;;;;;;;;;;;;;;;;4922665;29;19923;-81
2023/04/03 03:26:12;;;;;;;;;;;;;;;;;;4911346;29;19920;-82
2023/04/03 03:28:37;;;;;;;;;;;;;;;;;;4911213;29;20368;-82
2023/04/03 03:31:04;;;;;;;;;;;;;;;;;;4895568;29;19915;-81
2023/04/03 03:33:30;;;;;;;;;;;;;;;;;;4926245;29;19916;-81
2023/04/03 03:35:55;;;;;;;;;;;;;;;;;;4911445;29;19919;-82
2023/04/03 03:38:21;;;;;;;;;;;;;;;;;;4915636;29;19915;-82
2023/04/03 03:40:46;;;;;;;;;;;;;;;;;;4929325;29;19988;-81
2023/04/03 03:43:12;;;;;;;;;;;;;;;;;;4930900;29;19923;-81
2023/04/03 03:45:37;;;;;;;;;;;;;;;;;;4931583;29;20157;-81
2023/04/03 03:48:03;;;;;;;;;;;;;;;;;;4917686;29;19915;-82
2023/04/03 03:50:28;;;;;;;;;;;;;;;;;;4918493;29;19915;-82
2023/04/03 03:52:54;;;;;;;;;;;;;;;;;;4917100;29;20385;-82
2023/04/03 03:55:20;;;;;;;;;;;;;;;;;;4916973;29;19958;-81
2023/04/03 03:57:50;;;;;;;;;;;;;;;;;;4916433;29;19919;-82
2023/04/03 04:00:16;;;;;;;;;;;;;;;;;;4917157;29;19916;-82
2023/04/03 04:02:42;;;;;;;;;;;;;;;;;;4916379;29;19919;-82
2023/04/03 04:05:11;;;;;;;;;;;;;;;;;;4915394;29;20340;-81
2023/04/03 04:07:37;;;;;;;;;;;;;;;;;;4916971;29;19964;-82
2023/04/03 04:10:02;;;;;;;;;;;;;;;;;;4918609;29;19926;-82
2023/04/03 04:12:28;;;;;;;;;;;;;;;;;;4933584;29;20427;-82
2023/04/03 04:14:54;;;;;;;;;;;;;;;;;;4916765;29;19920;-82
2023/04/03 04:17:22;;;;;;;;;;;;;;;;;;4914905;29;19965;-82
2023/04/03 04:19:48;;;;;;;;;;;;;;;;;;4914049;29;19916;-82
2023/04/03 04:22:13;;;;;;;;;;;;;;;;;;4914253;29;19916;-81
2023/04/03 04:24:39;;;;;;;;;;;;;;;;;;4928797;29;19923;-82
2023/04/03 04:27:04;;;;;;;;;;;;;;;;;;4927306;29;19939;-82
2023/04/03 04:29:35;;;;;;;;;;;;;;;;;;4932133;29;19940;-82
2023/04/03 04:32:01;;;;;;;;;;;;;;;;;;4935777;29;19915;-82
2023/04/03 04:34:27;;;;;;;;;;;;;;;;;;4915740;29;19926;-82
2023/04/03 04:36:52;;;;;;;;;;;;;;;;;;4914946;29;20542;-81
2023/04/03 04:39:18;;;;;;;;;;;;;;;;;;4914556;29;19910;-82
2023/04/03 04:41:43;;;;;;;;;;;;;;;;;;4914950;29;19940;-82
2023/04/03 04:44:08;;;;;;;;;;;;;;;;;;4912319;29;19916;-82
2023/04/03 04:46:35;;;;;;;;;;;;;;;;;;4912281;29;19963;-81
2023/04/03 04:49:00;;;;;;;;;;;;;;;;;;4926880;29;19978;-82
2023/04/03 04:51:28;;;;;;;;;;;;;;;;;;4926181;29;20002;-82
2023/04/03 04:53:54;;;;;;;;;;;;;;;;;;4907571;29;19915;-81
2023/04/03 04:56:20;;;;;;;;;;;;;;;;;;4887513;29;19955;-80
2023/04/03 04:58:46;;;;;;;;;;;;;;;;;;4903460;29;19919;-80
2023/04/03 05:01:11;;;;;;;;;;;;;;;;;;4921352;29;19923;-81
2023/04/03 05:03:44;;;;;;;;;;;;;;;;;;4905767;29;19931;-81
2023/04/03 05:06:10;;;;;;;;;;;;;;;;;;4905713;29;20017;-81
2023/04/03 05:08:36;;;;;;;;;;;;;;;;;;4921778;29;20438;-81
2023/04/03 05:11:02;;;;;;;;;;;;;;;;;;4907598;29;19916;-82
2023/04/03 05:13:28;;;;;;;;;;;;;;;;;;4920161;29;20287;-81
2023/04/03 05:15:55;;;;;;;;;;;;;;;;;;4918527;29;19903;-80
2023/04/03 05:18:20;;;;;;;;;;;;;;;;;;4919629;29;19922;-81
2023/04/03 05:20:46;;;;;;;;;;;;;;;;;;4917653;29;19982;-81
2023/04/03 05:23:11;;;;;;;;;;;;;;;;;;4935760;29;19903;-80
2023/04/03 05:25:37;;;;;;;;;;;;;;;;;;4934425;29;19915;-80
2023/04/03 05:28:03;;;;;;;;;;;;;;;;;;4934806;29;19975;-81
2023/04/03 05:30:29;;;;;;;;;;;;;;;;;;4916998;29;19919;-81
2023/04/03 05:32:55;;;;;;;;;;;;;;;;;;4913676;29;19971;-80
2023/04/03 05:35:30;;;;;;;;;;;;;;;;;;4923093;29;19920;-81
2023/04/03 05:37:58;;;;;;;;;;;;;;;;;;4921647;29;19923;-81
2023/04/03 05:40:23;;;;;;;;;;;;;;;;;;4920753;29;20307;-81
2023/04/03 05:42:51;;;;;;;;;;;;;;;;;;4920348;29;19923;-81
2023/04/03 05:45:18;;;;;;;;;;;;;;;;;;4920432;29;19916;-80
2023/04/03 05:47:43;;;;;;;;;;;;;;;;;;4905140;29;20014;-81
2023/04/03 05:50:09;;;;;;;;;;;;;;;;;;4918919;29;19940;-80
2023/04/03 05:52:34;;;;;;;;;;;;;;;;;;4920894;29;19938;-81
2023/04/03 05:55:00;;;;;;;;;;;;;;;;;;4920179;29;19923;-81
2023/04/03 05:57:27;;;;;;;;;;;;;;;;;;4920358;29;19915;-80
2023/04/03 05:59:53;;;;;;;;;;;;;;;;;;4902962;29;19915;-80
2023/04/03 06:02:19;;;;;;;;;;;;;;;;;;4901906;29;19983;-80
2023/04/03 06:04:47;;;;;;;;;;;;;;;;;;4902937;29;19922;-80
2023/04/03 06:07:13;;;;;;;;;;;;;;;;;;4901835;29;19926;-79
2023/04/03 06:09:38;;;;;;;;;;;;;;;;;;4903825;29;20295;-80
2023/04/03 06:12:04;;;;;;;;;;;;;;;;;;4917806;29;20295;-81
2023/04/03 06:14:30;;;;;;;;;;;;;;;;;;4903647;29;20387;-81
2023/04/03 06:16:55;;;;;;;;;;;;;;;;;;4919437;29;19915;-81
2023/04/03 06:19:21;;;;;;;;;;;;;;;;;;4903365;29;19915;-81
2023/04/03 06:21:50;;;;;;;;;;;;;;;;;;4919067;29;19987;-81
2023/04/03 06:24:15;;;;;;;;;;;;;;;;;;4903207;29;19958;-81
2023/04/03 06:26:41;;;;;;;;;;;;;;;;;;4902906;29;19915;-81
2023/04/03 06:29:07;;;;;;;;;;;;;;;;;;4904912;29;19962;-81
2023/04/03 06:31:36;;;;;;;;;;;;;;;;;;4927851;23;19931;-78
2023/04/03 06:34:10;;;;;;;;;;;;;;;;;;4936404;29;19906;-78
2023/04/03 06:36:55;;;;;;;;;;;;;;;;;;4910479;29;19970;-79
2023/04/03 06:39:27;;;;;;;;;;;;;;;;;;4936066;29;19915;-79
2023/04/03 06:41:56;;;;;;;;;;;;;;;;;;4917078;29;19946;-78
2023/04/03 06:44:45;;;;;;;;;;;;;;;;;;4902184;29;19949;-78
2023/04/03 06:47:11;;;;;;;;;;;;;;;;;;4897839;29;19915;-79
2023/04/03 06:49:37;;;;;;;;;;;;;;;;;;4910239;29;19916;-78
2023/04/03 06:52:03;;;;;;;;;;;;;;;;;;4928051;29;19926;-78
2023/04/03 06:54:29;;;;;;;;;;;;;;;;;;4897771;29;19923;-80
2023/04/03 06:57:01;;;;;;;;;;;;;;;;;;4899302;29;19915;-80
2023/04/03 06:59:27;;;;;;;;;;;;;;;;;;4911409;29;19947;-78
2023/04/03 07:01:59;;;;;;;;;;;;;;;;;;4927528;29;20023;-78
2023/04/03 07:04:25;;;;;;;;;;;;;;;;;;4913716;29;19915;-78
2023/04/03 07:06:52;;;;;;;;;;;;;;;;;;4915452;29;20402;-79
2023/04/03 07:09:18;;;;;;;;;;;;;;;;;;4910891;29;19916;-78
2023/04/03 07:11:44;;;;;;;;;;;;;;;;;;4893639;29;20371;-79
2023/04/03 07:14:10;;;;;;;;;;;;;;;;;;4899751;29;19923;-78
2023/04/03 07:16:42;;;;;;;;;;;;;;;;;;4884170;29;19919;-79
2023/04/03 07:19:08;;;;;;;;;;;;;;;;;;4913039;29;19915;-80
2023/04/03 07:21:34;;;;;;;;;;;;;;;;;;4896307;29;19938;-79
2023/04/03 07:24:00;;;;;;;;;;;;;;;;;;4898483;29;19916;-78
2023/04/03 07:26:26;;;;;;;;;;;;;;;;;;4912457;29;19939;-79
2023/04/03 07:28:52;;;;;;;;;;;;;;;;;;4895370;29;19915;-79
2023/04/03 07:31:18;;;;;;;;;;;;;;;;;;4912496;29;19986;-79
2023/04/03 07:33:44;;;;;;;;;;;;;;;;;;4913418;29;19915;-79
2023/04/03 07:36:10;;;;;;;;;;;;;;;;;;4884173;29;19919;-79
2023/04/03 07:38:36;;;;;;;;;;;;;;;;;;4929672;29;19915;-80
2023/04/03 07:41:02;;;;;;;;;;;;;;;;;;4901902;29;20018;-79
2023/04/03 07:43:28;;;;;;;;;;;;;;;;;;4916739;29;19915;-79
2023/04/03 07:45:55;;;;;;;;;;;;;;;;;;4920059;29;19984;-79
2023/04/03 07:48:26;;;;;;;;;;;;;;;;;;4906169;29;19919;-79
2023/04/03 07:50:53;;;;;;;;;;;;;;;;;;4905827;29;19987;-80
2023/04/03 07:53:23;;;;;;;;;;;;;;;;;;4920479;29;19939;-79
2023/04/03 07:55:58;;;;;;;;;;;;;;;;;;4906489;29;19947;-79
2023/04/03 07:58:45;;;;;;;;;;;;;;;;;;;;;
2023/04/03 08:01:11;;;;;;;;;;;;;;;;;;4923539;29;19911;-79
2023/04/03 08:03:43;;;;;;;;;;;;;;;;;;4912321;29;19912;-80
2023/04/03 08:06:16;;;;;;;;;;;;;;;;;;4907831;29;19907;-81
2023/04/03 08:08:43;;;;;;;;;;;;;;;;;;4919653;29;19987;-80
2023/04/03 08:11:15;;;;;;;;;;;;;;;;;;4918465;29;19951;-80
2023/04/03 08:13:43;;;;;;;;;;;;;;;;;;4903319;29;19910;-80
2023/04/03 08:16:10;;;;;;;;;;;;;;;;;;4922662;29;19914;-80
2023/04/03 08:18:45;;;;;;;;;;;;;;;;;;4907457;29;19908;-80
2023/04/03 08:21:26;;;;;;;;;;;;;;;;;;4923295;29;19915;-80
2023/04/03 08:23:52;;;;;;;;;;;;;;;;;;4906688;29;19936;-81
2023/04/03 08:26:32;;;;;;;;;;;;;;;;;;4908058;29;19947;-81
2023/04/03 08:29:03;;;;;;;;;;;;;;;;;;4907242;29;19915;-78
2023/04/03 08:31:33;;;;;;;;;;;;;;;;;;4922722;29;19927;-80
2023/04/03 08:34:06;;;;;;;;;;;;;;;;;;4923345;29;19918;-79
2023/04/03 08:36:42;;;;;;;;;;;;;;;;;;4906341;29;19927;-80
2023/04/03 08:39:22;;;;;;;;;;;;;;;;;;4921462;29;19904;-79
2023/04/03 08:41:52;;;;;;;;;;;;;;;;;;4921590;29;19940;-80
2023/04/03 08:44:26;;;;;;;;;;;;;;;;;;4921516;29;19916;-78
2023/04/03 08:46:55;;;;;;;;;;;;;;;;;;4905693;29;19943;-80
2023/04/03 08:49:29;;;;;;;;;;;;;;;;;;4920739;29;19916;-80
2023/04/03 08:52:01;;;;;;;;;;;;;;;;;;4920395;29;19990;-81
2023/04/03 08:54:36;;;;;;;;;;;;;;;;;;4908057;29;19967;-80
2023/04/03 08:57:08;;;;;;;;;;;;;;;;;;4903735;29;19916;-78
2023/04/03 08:59:47;;;;;;;;;;;;;;;;;;4906781;29;19911;-79
2023/04/03 09:02:17;;;;;;;;;;;;;;;;;;4920784;29;19975;-79
2023/04/03 09:04:55;;;;;;;;;;;;;;;;;;4907986;29;19926;-79
2023/04/03 09:07:23;;;;;;;;;;;;;;;;;;4905853;29;19920;-79
2023/04/03 09:09:53;;;;;;;;;;;;;;;;;;4921223;29;19931;-78
2023/04/03 09:12:26;;;;;;;;;;;;;;;;;;4906768;29;19940;-80
2023/04/03 09:14:59;;;;;;;;;;;;;;;;;;4907659;29;19955;-79
2023/04/03 09:17:27;;;;;;;;;;;;;;;;;;4904433;29;19916;-79
2023/04/03 09:20:02;;;;;;;;;;;;;;;;;;4905479;29;19986;-79
2023/04/03 09:22:38;;;;;;;;;;;;;;;;;;4904410;29;19915;-79
2023/04/03 09:25:08;;;;;;;;;;;;;;;;;;4907299;29;19904;-80
2023/04/03 09:27:40;;;;;;;;;;;;;;;;;;4904222;29;19900;-80
2023/04/03 09:30:10;;;;;;;;;;;;;;;;;;4902808;29;19915;-79
2023/04/03 09:32:39;;;;;;;;;;;;;;;;;;4915218;29;19925;-79
2023/04/03 09:35:05;;;;;;;;;;;;;;;;;;4901845;29;19955;-79
2023/04/03 09:37:31;;;;;;;;;;;;;;;;;;4903738;29;19991;-79
2023/04/03 09:39:56;;;;;;;;;;;;;;;;;;4903276;29;19915;-79
2023/04/03 09:42:23;;;;;;;;;;;;;;;;;;4920081;29;19919;-80
2023/04/03 09:44:52;;;;;;;;;;;;;;;;;;4904159;29;19962;-80
2023/04/03 09:47:18;;;;;;;;;;;;;;;;;;4902811;29;19916;-79
2023/04/03 09:49:50;;;;;;;;;;;;;;;;;;4904742;29;19922;-79
2023/04/03 09:52:25;;;;;;;;;;;;;;;;;;4905960;29;19926;-80
2023/04/03 09:55:00;;;;;;;;;;;;;;;;;;4907279;29;19918;-79
2023/04/03 09:57:31;;;;;;;;;;;;;;;;;;4905639;29;19923;-80
2023/04/03 09:59:58;;;;;;;;;;;;;;;;;;4916570;29;19915;-78
2023/04/03 10:02:24;;;;;;;;;;;;;;;;;;4919529;29;19900;-80
2023/04/03 10:04:50;;;;;;;;;;;;;;;;;;4919059;29;19915;-79
2023/04/03 10:07:24;;;;;;;;;;;;;;;;;;4904501;29;19926;-79
2023/04/03 10:09:58;;;;;;;;;;;;;;;;;;4888165;29;19997;-81
2023/04/03 10:12:24;;;;;;;;;;;;;;;;;;4903961;29;19922;-80
2023/04/03 10:14:50;;;;;;;;;;;;;;;;;;4904177;29;19923;-80
2023/04/03 10:17:24;;;;;;;;;;;;;;;;;;4904181;29;19899;-80
2023/04/03 10:19:50;;;;;;;;;;;;;;;;;;4919841;29;19927;-80
2023/04/03 10:22:17;;;;;;;;;;;;;;;;;;4920201;29;19916;-78
2023/04/03 10:24:45;;;;;;;;;;;;;;;;;;4918067;29;19915;-79
2023/04/03 10:27:11;;;;;;;;;;;;;;;;;;4917513;29;19940;-80
2023/04/03 10:29:37;;;;;;;;;;;;;;;;;;4902987;29;19975;-80
2023/04/03 10:32:03;;;;;;;;;;;;;;;;;;4902853;29;19923;-79
2023/04/03 10:34:29;;;;;;;;;;;;;;;;;;4901659;29;19931;-81
2023/04/03 10:36:55;;;;;;;;;;;;;;;;;;4901314;29;19899;-80
2023/04/03 10:39:21;;;;;;;;;;;;;;;;;;4932437;29;19954;-79
2023/04/03 10:41:47;;;;;;;;;;;;;;;;;;4902012;29;19911;-80
2023/04/03 10:44:13;;;;;;;;;;;;;;;;;;4903068;29;19911;-81
2023/04/03 10:46:39;;;;;;;;;;;;;;;;;;4917679;29;19915;-80
2023/04/03 10:49:05;;;;;;;;;;;;;;;;;;4921865;29;19915;-80
2023/04/03 10:51:31;;;;;;;;;;;;;;;;;;4906608;29;19950;-81
2023/04/03 10:54:00;;;;;;;;;;;;;;;;;;4923090;29;19910;-80
2023/04/03 10:56:26;;;;;;;;;;;;;;;;;;4908224;29;19900;-80
2023/04/03 10:58:54;;;;;;;;;;;;;;;;;;4939402;29;19915;-80
2023/04/03 11:01:22;;;;;;;;;;;;;;;;;;4906702;29;19939;-79
2023/04/03 11:03:51;;;;;;;;;;;;;;;;;;4907899;29;19916;-80
2023/04/03 11:06:20;;;;;;;;;;;;;;;;;;4938268;29;19923;-80
2023/04/03 11:08:51;;;;;;;;;;;;;;;;;;4908856;29;19911;-79
2023/04/03 11:11:32;;;;;;;;;;;;;;;;;;4908673;29;19944;-81
2023/04/03 11:13:58;;;;;;;;;;;;;;;;;;4907944;29;19941;-81
2023/04/03 11:16:25;;;;;;;;;;;;;;;;;;4891916;29;20014;-81
2023/04/03 11:18:54;;;;;;;;;;;;;;;;;;4905363;29;19975;-81
2023/04/03 11:21:26;;;;;;;;;;;;;;;;;;4923782;29;19930;-80
2023/04/03 11:23:51;;;;;;;;;;;;;;;;;;4922820;29;19940;-80
2023/04/03 11:26:20;;;;;;;;;;;;;;;;;;4906460;29;19915;-80
2023/04/03 11:28:50;;;;;;;;;;;;;;;;;;4906306;29;19922;-81
2023/04/03 11:31:16;;;;;;;;;;;;;;;;;;4920252;29;19915;-81
2023/04/03 11:33:45;;;;;;;;;;;;;;;;;;4920421;29;19941;-80
2023/04/03 11:36:11;;;;;;;;;;;;;;;;;;4903741;29;20010;-80
2023/04/03 11:38:40;;;;;;;;;;;;;;;;;;4907135;29;19915;-80
2023/04/03 11:41:06;;;;;;;;;;;;;;;;;;4920438;29;19916;-81
2023/04/03 11:43:35;;;;;;;;;;;;;;;;;;4906494;29;19927;-80
2023/04/03 11:46:04;;;;;;;;;;;;;;;;;;4935899;29;19922;-81
2023/04/03 11:48:33;;;;;;;;;;;;;;;;;;4934642;29;19915;-80
2023/04/03 11:50:59;;;;;;;;;;;;;;;;;;4917905;29;19916;-80
2023/04/03 11:53:27;;;;;;;;;;;;;;;;;;4918003;29;19911;-80
2023/04/03 11:55:56;;;;;;;;;;;;;;;;;;4905189;29;19915;-80
2023/04/03 11:58:25;;;;;;;;;;;;;;;;;;4904867;29;19915;-80
2023/04/03 12:00:51;;;;;;;;;;;;;;;;;;4904009;29;20486;-80
2023/04/03 12:03:22;;;;;;;;;;;;;;;;;;4918641;29;19978;-79
2023/04/03 12:05:48;;;;;;;;;;;;;;;;;;4902757;29;19915;-81
2023/04/03 12:08:14;;;;;;;;;;;;;;;;;;4903039;29;19983;-81
2023/04/03 12:10:46;;;;;;;;;;;;;;;;;;4903418;29;19950;-80
2023/04/03 12:13:13;;;;;;;;;;;;;;;;;;4916813;29;19919;-81
2023/04/03 12:15:42;;;;;;;;;;;;;;;;;;4882860;29;20299;-82
2023/04/03 12:18:13;;;;;;;;;;;;;;;;;;4915455;29;19916;-81
2023/04/03 12:20:39;;;;;;;;;;;;;;;;;;4895404;29;19963;-81
2023/04/03 12:23:05;;;;;;;;;;;;;;;;;;4892317;29;19954;-81
2023/04/03 12:25:31;;;;;;;;;;;;;;;;;;4892582;29;19915;-81
2023/04/03 12:28:00;;;;;;;;;;;;;;;;;;4912743;29;19945;-81
2023/04/03 12:30:26;;;;;;;;;;;;;;;;;;4894209;29;19919;-81
2023/04/03 12:32:52;;;;;;;;;;;;;;;;;;4925225;23;19939;-87
2023/04/03 12:35:17;;;;;;;;;;;;;;;;;;4917484;29;20027;-89
2023/04/03 12:37:43;;;;;;;;;;;;;;;;;;4918362;29;19919;-87
2023/04/03 12:40:08;;;;;;;;;;;;;;;;;;4919222;29;20294;-90
2023/04/03 12:42:34;;;;;;;;;;;;;;;;;;4907051;29;19915;-89
2023/04/03 12:44:59;;;;;;;;;;;;;;;;;;4900085;29;19954;-89
2023/04/03 12:47:25;;;;;;;;;;;;;;;;;;4886267;29;19970;-86
2023/04/03 12:49:51;;;;;;;;;;;;;;;;;;4884323;29;19916;-89
2023/04/03 12:52:16;;;;;;;;;;;;;;;;;;4916289;29;19915;-88
2023/04/03 12:54:43;;;;;;;;;;;;;;;;;;4901620;29;19919;-88
2023/04/03 12:57:09;;;;;;;;;;;;;;;;;;4885869;29;19922;-88
2023/04/03 12:59:36;;;;;;;;;;;;;;;;;;4884198;29;19998;-88
2023/04/03 13:02:01;;;;;;;;;;;;;;;;;;4901291;29;19915;-89
2023/04/03 13:04:27;;;;;;;;;;;;;;;;;;4884629;29;19916;-87
2023/04/03 13:06:55;;;;;;;;;;;;;;;;;;4867768;29;19950;-88
2023/04/03 13:09:21;;;;;;;;;;;;;;;;;;4913860;29;19958;-89
2023/04/03 13:11:47;;;;;;;;;;;;;;;;;;4884499;29;19954;-88
2023/04/03 13:14:12;;;;;;;;;;;;;;;;;;4900825;29;20077;-90
2023/04/03 13:16:41;;;;;;;;;;;;;;;;;;4900214;29;19919;-89
2023/04/03 13:19:06;;;;;;;;;;;;;;;;;;4900828;29;19975;-89
2023/04/03 13:21:32;;;;;;;;;;;;;;;;;;4868372;29;19919;-89
2023/04/03 13:23:57;;;;;;;;;;;;;;;;;;4915961;29;19915;-89
2023/04/03 13:26:23;;;;;;;;;;;;;;;;;;4885962;29;19975;-88
2023/04/03 13:28:50;;;;;;;;;;;;;;;;;;4890226;29;19951;-87
2023/04/03 13:31:16;;;;;;;;;;;;;;;;;;4887617;29;19919;-89
2023/04/03 13:33:42;;;;;;;;;;;;;;;;;;4901102;29;19919;-86
2023/04/03 13:36:08;;;;;;;;;;;;;;;;;;4914991;29;20288;-89
2023/04/03 13:38:36;;;;;;;;;;;;;;;;;;4899686;29;20034;-89
2023/04/03 13:41:02;;;;;;;;;;;;;;;;;;4899177;29;19912;-87
2023/04/03 13:43:28;;;;;;;;;;;;;;;;;;4884065;29;19915;-86
2023/04/03 13:45:54;;;;;;;;;;;;;;;;;;4898154;29;19916;-86
2023/04/03 13:48:22;;;;;;;;;;;;;;;;;;4913344;29;20017;-86
2023/04/03 13:50:48;;;;;;;;;;;;;;;;;;4897779;29;20013;-86
2023/04/03 13:53:13;;;;;;;;;;;;;;;;;;4897480;29;19923;-86
2023/04/03 13:55:41;;;;;;;;;;;;;;;;;;4913157;29;21270;-87
2023/04/03 13:58:07;;;;;;;;;;;;;;;;;;4867474;29;20002;-86
2023/04/03 14:00:32;;;;;;;;;;;;;;;;;;4882444;29;20290;-86
2023/04/03 14:02:58;;;;;;;;;;;;;;;;;;4866926;29;20280;-87
2023/04/03 14:05:25;;;;;;;;;;;;;;;;;;4881239;29;19963;-85
2023/04/03 14:07:50;;;;;;;;;;;;;;;;;;4881726;29;19955;-87
2023/04/03 14:10:16;;;;;;;;;;;;;;;;;;4911386;29;19969;-87
2023/04/03 14:12:41;;;;;;;;;;;;;;;;;;4896602;29;20332;-86
2023/04/03 14:15:07;;;;;;;;;;;;;;;;;;4880641;29;19916;-83
2023/04/03 14:17:33;;;;;;;;;;;;;;;;;;4865775;29;19943;-84
2023/04/03 14:19:58;;;;;;;;;;;;;;;;;;4881397;29;19922;-85
2023/04/03 14:22:24;;;;;;;;;;;;;;;;;;4880985;29;20300;-87
2023/04/03 14:24:51;;;;;;;;;;;;;;;;;;4864583;29;20402;-88
2023/04/03 14:27:17;;;;;;;;;;;;;;;;;;4878086;29;20019;-88
2023/04/03 14:29:43;;;;;;;;;;;;;;;;;;4862944;29;19922;-87
2023/04/03 14:32:08;;;;;;;;;;;;;;;;;;4862725;29;20391;-87
2023/04/03 14:34:34;;;;;;;;;;;;;;;;;;4863077;29;19938;-88
2023/04/03 14:36:59;;;;;;;;;;;;;;;;;;4877627;29;20300;-87
2023/04/03 14:39:25;;;;;;;;;;;;;;;;;;4862369;29;20006;-86
2023/04/03 14:41:51;;;;;;;;;;;;;;;;;;4883936;29;20349;-84
2023/04/03 14:44:16;;;;;;;;;;;;;;;;;;4897676;29;20028;-86
2023/04/03 14:46:42;;;;;;;;;;;;;;;;;;4880733;29;19915;-87
2023/04/03 14:49:08;;;;;;;;;;;;;;;;;;4897651;29;19915;-87
2023/04/03 14:51:33;;;;;;;;;;;;;;;;;;4897615;29;20307;-88
2023/04/03 14:53:59;;;;;;;;;;;;;;;;;;4896268;29;19915;-86
2023/04/03 14:56:25;;;;;;;;;;;;;;;;;;4896063;29;19982;-87
2023/04/03 14:58:51;;;;;;;;;;;;;;;;;;4895124;29;20359;-87
2023/04/03 15:01:17;;;;;;;;;;;;;;;;;;4896701;29;19919;-89
2023/04/03 15:03:43;;;;;;;;;;;;;;;;;;4896724;29;19933;-86
2023/04/03 15:06:09;;;;;;;;;;;;;;;;;;4896899;29;19915;-87
2023/04/03 15:08:35;;;;;;;;;;;;;;;;;;4885415;29;19915;-88
2023/04/03 15:11:01;;;;;;;;;;;;;;;;;;4890534;29;19915;-88
2023/04/03 15:13:27;;;;;;;;;;;;;;;;;;4889090;29;19919;-87
2023/04/03 15:15:52;;;;;;;;;;;;;;;;;;4918524;29;20268;-87
2023/04/03 15:18:18;;;;;;;;;;;;;;;;;;4886976;29;19911;-85
2023/04/03 15:20:44;;;;;;;;;;;;;;;;;;4882812;29;19916;-86
2023/04/03 15:23:09;;;;;;;;;;;;;;;;;;4880559;29;19926;-88
2023/04/03 15:25:35;;;;;;;;;;;;;;;;;;4864772;29;19963;-86
2023/04/03 15:28:00;;;;;;;;;;;;;;;;;;4865349;29;19919;-87
2023/04/03 15:30:26;;;;;;;;;;;;;;;;;;4873312;29;20303;-88
2023/04/03 15:32:52;;;;;;;;;;;;;;;;;;4888496;29;19923;-88
2023/04/03 15:35:18;;;;;;;;;;;;;;;;;;4891959;29;19919;-87
2023/04/03 15:37:47;;;;;;;;;;;;;;;;;;4883963;29;19931;-91
2023/04/03 15:40:26;;;;;;;;;;;;;;;;;;4884566;29;19915;-87
2023/04/03 15:42:51;;;;;;;;;;;;;;;;;;4897796;29;19922;-86
2023/04/03 15:45:18;;;;;;;;;;;;;;;;;;4890305;29;19919;-87
2023/04/03 15:47:44;;;;;;;;;;;;;;;;;;4896362;29;20261;-87
2023/04/03 15:50:12;;;;;;;;;;;;;;;;;;4901713;29;20399;-87
2023/04/03 15:52:38;;;;;;;;;;;;;;;;;;4887797;29;19916;-85
2023/04/03 15:55:03;;;;;;;;;;;;;;;;;;4900136;29;19927;-88
2023/04/03 15:57:29;;;;;;;;;;;;;;;;;;4897004;29;19942;-85
2023/04/03 15:59:56;;;;;;;;;;;;;;;;;;4896753;29;20290;-84
2023/04/03 16:02:22;;;;;;;;;;;;;;;;;;4883650;29;19920;-86
2023/04/03 16:04:48;;;;;;;;;;;;;;;;;;4907371;29;19939;-85
2023/04/03 16:07:13;;;;;;;;;;;;;;;;;;4921965;29;19979;-85
2023/04/03 16:09:39;;;;;;;;;;;;;;;;;;4885111;29;19915;-82
2023/04/03 16:12:04;;;;;;;;;;;;;;;;;;4896427;29;19915;-85
2023/04/03 16:14:30;;;;;;;;;;;;;;;;;;4883380;29;19963;-84
2023/04/03 16:16:56;;;;;;;;;;;;;;;;;;4871491;29;19919;-84
2023/04/03 16:19:22;;;;;;;;;;;;;;;;;;4890988;29;20010;-84
2023/04/03 16:21:47;;;;;;;;;;;;;;;;;;4918210;29;20332;-79
2023/04/03 16:24:13;;;;;;;;;;;;;;;;;;4889010;29;20014;-91
2023/04/03 16:26:41;;;;;;;;;;;;;;;;;;4902183;29;20036;-85
2023/04/03 16:29:06;;;;;;;;;;;;;;;;;;4891045;29;19959;-90
2023/04/03 16:31:32;;;;;;;;;;;;;;;;;;4901776;29;19987;-90
2023/04/03 16:33:58;;;;;;;;;;;;;;;;;;4888388;29;19920;-88
2023/04/03 16:36:23;;;;;;;;;;;;;;;;;;4891206;29;19974;-88
2023/04/03 16:38:49;;;;;;;;;;;;;;;;;;4901791;29;20010;-89
2023/04/03 16:41:17;;;;;;;;;;;;;;;;;;4902534;29;19958;-89
2023/04/03 16:43:43;;;;;;;;;;;;;;;;;;4893914;29;19919;-88
2023/04/03 16:46:08;;;;;;;;;;;;;;;;;;4893172;29;19942;-86